Time;durP1;ratioP1;P1;durP2;ratioP2;P2;SDS_P1;SDS_P2;PMS_P1;PMS_P2;Temp;Humidity;BMP_temperature;BMP_pressure;BME280_temperature;BME280_humidity;BME280_pressure;Samples;Min_cycle;Max_cycle;Signal;HPM_P1;HPM_P2
2023/04/16 00:01:10;;;;;;;1.70;0.98;;;21.10;99.90;;;;;;4955039;29;20700;-75
2023/04/16 00:03:41;;;;;;;3.17;1.00;;;21.10;99.90;;;;;;4971565;28;20246;-75
2023/04/16 00:06:14;;;;;;;2.72;1.00;;;21.10;99.90;;;;;;4973983;28;20399;-75
2023/04/16 00:08:45;;;;;;;3.00;1.10;;;21.10;99.90;;;;;;4966632;28;20211;-74
2023/04/16 00:11:16;;;;;;;1.35;0.90;;;21.20;99.90;;;;;;4974066;28;20204;-74
2023/04/16 00:13:47;;;;;;;1.38;0.80;;;21.10;99.90;;;;;;4974156;28;20215;-75
2023/04/16 00:16:21;;;;;;;2.47;0.90;;;21.20;99.90;;;;;;4973175;28;20197;-74
2023/04/16 00:18:52;;;;;;;2.70;0.93;;;21.20;99.90;;;;;;4970270;28;20196;-75
2023/04/16 00:21:23;;;;;;;1.00;0.80;;;21.20;99.90;;;;;;4974079;28;20207;-75
2023/04/16 00:23:54;;;;;;;1.15;0.90;;;21.30;99.90;;;;;;4974615;28;20216;-75
2023/04/16 00:26:25;;;;;;;2.88;0.90;;;21.30;99.90;;;;;;4959597;28;20197;-75
2023/04/16 00:28:56;;;;;;;2.55;0.80;;;21.30;99.90;;;;;;4955626;29;20231;-75
2023/04/16 00:31:33;;;;;;;1.58;0.88;;;21.40;99.90;;;;;;4954718;29;20200;-75
2023/04/16 00:34:04;;;;;;;1.73;0.95;;;21.40;99.90;;;;;;4955328;29;20255;-75
2023/04/16 00:36:36;;;;;;;1.58;0.82;;;21.50;99.90;;;;;;4954784;29;20280;-75
2023/04/16 00:39:07;;;;;;;2.40;1.00;;;21.70;99.90;;;;;;4970070;28;20200;-75
2023/04/16 00:41:38;;;;;;;1.02;0.93;;;21.70;99.90;;;;;;4974076;28;20200;-75
2023/04/16 00:44:10;;;;;;;3.10;1.10;;;21.80;99.90;;;;;;4973877;28;20212;-75
2023/04/16 00:46:43;;;;;;;0.82;0.80;;;21.90;99.90;;;;;;4974232;28;20201;-75
2023/04/16 00:49:14;;;;;;;2.30;0.90;;;21.90;99.90;;;;;;4974536;28;20295;-75
2023/04/16 00:51:45;;;;;;;2.75;0.98;;;21.90;99.90;;;;;;4973927;28;20197;-75
2023/04/16 00:54:16;;;;;;;1.90;1.02;;;21.90;99.90;;;;;;4972466;28;20200;-75
2023/04/16 00:56:48;;;;;;;1.58;0.90;;;21.90;99.90;;;;;;4973621;28;20192;-75
2023/04/16 00:59:19;;;;;;;1.52;1.00;;;21.90;99.90;;;;;;4971239;28;20572;-74
2023/04/16 01:01:52;;;;;;;2.50;0.90;;;21.90;99.90;;;;;;4971945;28;20224;-75
2023/04/16 01:04:23;;;;;;;2.38;0.90;;;22.00;99.90;;;;;;4972833;28;20211;-75
2023/04/16 01:06:55;;;;;;;4.13;1.30;;;22.00;99.90;;;;;;4972095;28;20649;-75
2023/04/16 01:09:26;;;;;;;3.00;1.23;;;22.00;99.90;;;;;;4970553;28;20210;-75
2023/04/16 01:11:57;;;;;;;3.10;1.40;;;22.00;99.90;;;;;;4969497;28;20591;-76
2023/04/16 01:14:30;;;;;;;1.25;0.88;;;22.00;99.90;;;;;;4967808;28;20219;-75
2023/04/16 01:17:03;;;;;;;1.60;1.10;;;22.00;99.90;;;;;;4970875;28;20380;-75
2023/04/16 01:19:35;;;;;;;3.35;1.13;;;22.00;99.90;;;;;;4971744;28;20656;-75
2023/04/16 01:22:09;;;;;;;3.08;1.02;;;22.00;99.90;;;;;;4972026;28;20497;-76
2023/04/16 01:24:40;;;;;;;4.18;1.17;;;22.10;99.90;;;;;;4967412;28;20215;-75
2023/04/16 01:27:11;;;;;;;2.05;1.10;;;22.10;99.90;;;;;;4972645;28;20200;-76
2023/04/16 01:29:43;;;;;;;2.22;1.00;;;22.20;99.90;;;;;;4967719;28;20592;-75
2023/04/16 01:32:14;;;;;;;2.00;1.00;;;22.30;99.90;;;;;;4973615;28;20227;-75
2023/04/16 01:34:45;;;;;;;2.17;0.80;;;22.40;99.90;;;;;;4974298;28;20279;-75
2023/04/16 01:37:19;;;;;;;3.13;1.00;;;22.40;99.90;;;;;;4974687;28;20207;-75
2023/04/16 01:39:50;;;;;;;3.47;1.08;;;22.50;99.90;;;;;;4970043;28;20196;-75
2023/04/16 01:42:21;;;;;;;2.25;0.80;;;22.60;99.90;;;;;;4975385;28;20347;-75
2023/04/16 01:44:53;;;;;;;2.83;0.98;;;22.70;99.90;;;;;;4974620;28;20208;-76
2023/04/16 01:47:24;;;;;;;3.20;0.95;;;22.70;99.90;;;;;;4973288;28;21034;-76
2023/04/16 01:49:55;;;;;;;1.48;1.00;;;22.80;99.90;;;;;;4968943;28;20671;-75
2023/04/16 01:52:28;;;;;;;3.50;0.95;;;22.90;99.90;;;;;;4973604;28;20204;-75
2023/04/16 01:54:59;;;;;;;2.30;0.90;;;23.00;99.90;;;;;;4975404;28;20196;-76
2023/04/16 01:57:30;;;;;;;2.63;1.15;;;23.00;99.90;;;;;;4976617;28;20200;-76
2023/04/16 02:00:02;;;;;;;3.13;1.63;;;23.00;99.90;;;;;;4980406;23;20259;-75
2023/04/16 02:02:33;;;;;;;2.33;1.20;;;23.10;99.90;;;;;;4954479;28;20283;-78
2023/04/16 02:05:05;;;;;;;2.38;1.20;;;23.10;99.90;;;;;;4970583;28;20215;-76
2023/04/16 02:07:38;;;;;;;3.25;1.15;;;23.20;99.90;;;;;;4966076;28;20663;-76
2023/04/16 02:10:10;;;;;;;2.38;1.25;;;23.30;99.90;;;;;;4959769;28;20200;-75
2023/04/16 02:12:41;;;;;;;1.50;1.00;;;23.30;99.90;;;;;;4954393;28;20212;-79
2023/04/16 02:15:13;;;;;;;3.08;1.00;;;23.40;99.90;;;;;;4951260;28;20206;-78
2023/04/16 02:17:45;;;;;;;1.70;1.10;;;23.40;99.90;;;;;;4971369;28;20204;-79
2023/04/16 02:20:16;;;;;;;2.40;1.10;;;23.50;99.90;;;;;;4958422;28;20197;-79
2023/04/16 02:22:49;;;;;;;1.77;1.00;;;23.60;99.90;;;;;;4960650;28;20212;-78
2023/04/16 02:25:21;;;;;;;3.55;1.00;;;23.70;99.90;;;;;;4969341;28;20193;-80
2023/04/16 02:27:52;;;;;;;3.35;1.30;;;23.70;99.90;;;;;;4958669;28;20216;-79
2023/04/16 02:30:23;;;;;;;2.15;1.20;;;23.80;99.90;;;;;;4955054;28;20196;-76
2023/04/16 02:32:54;;;;;;;3.30;1.25;;;23.80;99.90;;;;;;4950860;29;20205;-75
2023/04/16 02:35:25;;;;;;;1.80;1.20;;;23.70;99.90;;;;;;4952563;29;20593;-79
2023/04/16 02:37:58;;;;;;;2.70;0.90;;;23.70;99.90;;;;;;4953948;29;20200;-76
2023/04/16 02:40:30;;;;;;;1.30;1.00;;;23.60;99.90;;;;;;4952778;28;20205;-76
2023/04/16 02:43:01;;;;;;;2.53;1.08;;;23.50;99.90;;;;;;4950552;29;20225;-75
2023/04/16 02:45:33;;;;;;;3.58;0.98;;;23.40;99.90;;;;;;4952045;29;20220;-75
2023/04/16 02:48:06;;;;;;;2.20;0.85;;;23.40;99.90;;;;;;4953697;28;20225;-75
2023/04/16 02:50:37;;;;;;;1.70;1.13;;;23.40;99.90;;;;;;4944107;29;20207;-75
2023/04/16 02:53:10;;;;;;;2.63;1.00;;;23.50;99.90;;;;;;4955609;29;20208;-75
2023/04/16 02:55:41;;;;;;;1.40;1.08;;;23.50;99.90;;;;;;4954513;29;20201;-76
2023/04/16 02:58:12;;;;;;;2.42;1.27;;;23.50;99.90;;;;;;4955244;29;20205;-74
2023/04/16 03:00:43;;;;;;;1.95;1.10;;;23.50;99.90;;;;;;4947509;28;20629;-79
2023/04/16 03:03:14;;;;;;;4.07;1.60;;;23.50;99.90;;;;;;4952471;29;20224;-78
2023/04/16 03:05:46;;;;;;;2.42;1.30;;;23.40;99.90;;;;;;4949526;29;20198;-79
2023/04/16 03:08:23;;;;;;;3.65;2.63;;;23.40;99.90;;;;;;4944571;29;20672;-77
2023/04/16 03:10:54;;;;;;;2.47;2.10;;;23.40;99.90;;;;;;4935917;29;20197;-78
2023/04/16 03:13:25;;;;;;;2.65;1.83;;;23.50;99.90;;;;;;4935596;29;20198;-75
2023/04/16 03:15:56;;;;;;;2.70;2.00;;;23.50;99.90;;;;;;4939414;29;20664;-78
2023/04/16 03:18:27;;;;;;;5.63;2.97;;;23.50;99.90;;;;;;4937064;29;20190;-76
2023/04/16 03:20:59;;;;;;;3.92;2.08;;;23.60;99.90;;;;;;4945489;29;20197;-78
2023/04/16 03:23:32;;;;;;;3.17;2.10;;;23.60;99.90;;;;;;4949206;29;20309;-77
2023/04/16 03:26:05;;;;;;;5.15;1.98;;;23.70;99.90;;;;;;4938232;29;20201;-80
2023/04/16 03:28:36;;;;;;;4.05;1.80;;;23.80;99.90;;;;;;4950154;29;20193;-77
2023/04/16 03:31:07;;;;;;;3.83;1.55;;;23.80;99.90;;;;;;4943754;29;20233;-78
2023/04/16 03:33:39;;;;;;;2.30;1.60;;;23.80;99.90;;;;;;4954779;29;20197;-75
2023/04/16 03:36:11;;;;;;;1.98;1.35;;;23.80;99.90;;;;;;4949605;29;20207;-75
2023/04/16 03:38:44;;;;;;;1.85;1.27;;;23.90;99.90;;;;;;4939654;29;20206;-77
2023/04/16 03:41:15;;;;;;;5.95;1.30;;;23.90;99.90;;;;;;4934862;29;20190;-77
2023/04/16 03:43:49;;;;;;;2.50;1.30;;;24.00;99.90;;;;;;4931042;29;20221;-76
2023/04/16 03:46:20;;;;;;;2.70;1.23;;;24.10;99.90;;;;;;4936462;29;20203;-75
2023/04/16 03:48:51;;;;;;;3.75;1.00;;;24.30;99.90;;;;;;4948578;29;20204;-79
2023/04/16 03:51:23;;;;;;;2.08;0.70;;;24.40;99.90;;;;;;4953751;29;20203;-75
2023/04/16 03:54:00;;;;;;;1.38;0.70;;;24.60;99.90;;;;;;4935551;29;20200;-78
2023/04/16 03:56:32;;;;;;;2.25;0.93;;;24.60;99.90;;;;;;4934780;29;20669;-75
2023/04/16 03:59:04;;;;;;;1.70;1.10;;;24.60;99.90;;;;;;4944795;28;20730;-76
2023/04/16 04:01:40;;;;;;;1.50;1.10;;;24.50;99.90;;;;;;4954464;29;20240;-73
2023/04/16 04:04:12;;;;;;;1.70;0.85;;;24.50;99.90;;;;;;4952353;29;20619;-74
2023/04/16 04:06:47;;;;;;;2.03;0.60;;;24.80;99.90;;;;;;4923868;29;20206;-77
2023/04/16 04:09:21;;;;;;;1.23;0.65;;;25.00;99.90;;;;;;4917070;29;20194;-77
2023/04/16 04:11:55;;;;;;;0.50;0.50;;;25.10;99.90;;;;;;4931237;29;20259;-74
2023/04/16 04:14:27;;;;;;;3.08;0.52;;;25.20;99.90;;;;;;4932054;29;20256;-76
2023/04/16 04:16:58;;;;;;;0.95;0.50;;;25.10;99.90;;;;;;4935860;29;20196;-79
2023/04/16 04:19:30;;;;;;;1.65;0.57;;;25.10;99.90;;;;;;4938152;29;20201;-78
2023/04/16 04:22:04;;;;;;;1.75;0.52;;;25.00;99.90;;;;;;4937903;29;20649;-77
2023/04/16 04:24:37;;;;;;;3.13;0.50;;;24.90;99.90;;;;;;4935910;29;20217;-79
2023/04/16 04:27:08;;;;;;;0.43;0.32;;;24.80;99.90;;;;;;4936609;29;20653;-76
2023/04/16 04:29:39;;;;;;;3.33;0.40;;;24.80;99.90;;;;;;4955437;29;20197;-77
2023/04/16 04:32:13;;;;;;;1.13;0.32;;;24.80;99.90;;;;;;4935379;29;20669;-80
2023/04/16 04:34:47;;;;;;;0.20;0.20;;;24.80;99.90;;;;;;4934228;29;20665;-76
2023/04/16 04:37:19;;;;;;;0.63;0.30;;;24.70;99.90;;;;;;4945680;29;20300;-76
2023/04/16 04:39:55;;;;;;;1.38;0.40;;;24.70;99.90;;;;;;4952965;29;20540;-75
2023/04/16 04:42:26;;;;;;;1.05;0.40;;;24.80;99.90;;;;;;4949033;29;20225;-80
2023/04/16 04:45:08;;;;;;;0.80;0.38;;;24.80;99.90;;;;;;4938075;29;20224;-79
2023/04/16 04:47:42;;;;;;;1.02;0.20;;;24.80;99.90;;;;;;4933334;29;20202;-76
2023/04/16 04:50:13;;;;;;;0.40;0.20;;;24.90;99.90;;;;;;4933221;29;20202;-80
2023/04/16 04:52:44;;;;;;;2.30;0.30;;;24.80;99.90;;;;;;4934863;29;20210;-74
2023/04/16 04:55:17;;;;;;;0.47;0.17;;;24.80;99.90;;;;;;4938530;29;20213;-75
2023/04/16 04:57:49;;;;;;;1.45;0.30;;;24.80;99.90;;;;;;4942061;29;20584;-73
2023/04/16 05:00:20;;;;;;;0.20;0.20;;;24.80;99.90;;;;;;4947682;28;20726;-77
2023/04/16 05:02:51;;;;;;;0.20;0.20;;;24.80;99.90;;;;;;4951976;29;20208;-75
2023/04/16 05:05:22;;;;;;;0.82;0.38;;;24.80;99.90;;;;;;4955893;28;20221;-75
2023/04/16 05:07:53;;;;;;;0.60;0.30;;;24.80;99.90;;;;;;4954623;28;20280;-74
2023/04/16 05:10:26;;;;;;;0.50;0.15;;;24.80;99.90;;;;;;4953721;29;20231;-73
2023/04/16 05:12:57;;;;;;;0.08;0.08;;;24.80;99.90;;;;;;4954368;29;20235;-76
2023/04/16 05:15:29;;;;;;;0.22;0.10;;;24.70;99.90;;;;;;4952852;28;20204;-75
2023/04/16 05:18:00;;;;;;;0.30;0.30;;;24.60;99.90;;;;;;4956207;28;20209;-74
2023/04/16 05:20:31;;;;;;;0.32;0.30;;;24.60;99.90;;;;;;4957693;29;20207;-75
2023/04/16 05:23:02;;;;;;;0.73;0.30;;;24.50;99.90;;;;;;4957099;29;20212;-72
2023/04/16 05:25:35;;;;;;;0.20;0.20;;;24.50;99.90;;;;;;4956094;29;20586;-74
2023/04/16 05:28:06;;;;;;;0.28;0.22;;;24.30;99.90;;;;;;4956981;29;20226;-75
2023/04/16 05:30:38;;;;;;;0.30;0.30;;;24.10;99.90;;;;;;4956049;29;20201;-75
2023/04/16 05:33:09;;;;;;;0.30;0.30;;;24.10;99.90;;;;;;4954909;29;20204;-75
2023/04/16 05:35:40;;;;;;;0.40;0.22;;;24.10;99.90;;;;;;4954350;29;20201;-74
2023/04/16 05:38:14;;;;;;;0.30;0.17;;;24.00;99.90;;;;;;4955506;29;20200;-80
2023/04/16 05:40:48;;;;;;;0.98;0.20;;;23.90;99.90;;;;;;4951949;29;20202;-79
2023/04/16 05:43:19;;;;;;;0.30;0.20;;;23.70;99.90;;;;;;4955737;29;20205;-79
2023/04/16 05:45:52;;;;;;;0.80;0.20;;;23.70;99.90;;;;;;4957637;29;20255;-79
2023/04/16 05:48:23;;;;;;;0.65;0.17;;;23.60;99.90;;;;;;4956750;29;20205;-79
2023/04/16 05:50:57;;;;;;;0.17;0.17;;;23.50;99.90;;;;;;4957402;29;20223;-78
2023/04/16 05:53:28;;;;;;;1.05;0.73;;;23.50;99.90;;;;;;4957792;28;20193;-79
2023/04/16 05:56:02;;;;;;;0.30;0.30;;;23.50;99.90;;;;;;4955158;29;20204;-75
2023/04/16 05:58:36;;;;;;;0.38;0.30;;;23.40;99.90;;;;;;4956583;28;20314;-77
2023/04/16 06:01:08;;;;;;;0.38;0.20;;;23.40;99.90;;;;;;4952012;29;20240;-76
2023/04/16 06:03:42;;;;;;;0.38;0.15;;;23.40;99.90;;;;;;4957663;29;20232;-76
2023/04/16 06:06:13;;;;;;;0.20;0.15;;;23.40;99.90;;;;;;4957146;29;20193;-76
2023/04/16 06:08:44;;;;;;;1.67;0.30;;;23.30;99.90;;;;;;4956439;29;20216;-74
2023/04/16 06:11:20;;;;;;;0.30;0.20;;;23.30;99.90;;;;;;4957426;28;20213;-75
2023/04/16 06:13:54;;;;;;;0.28;0.28;;;23.20;99.90;;;;;;4956625;29;20201;-75
2023/04/16 06:16:25;;;;;;;0.10;0.10;;;23.20;99.90;;;;;;4955280;28;20241;-75
2023/04/16 06:18:56;;;;;;;0.22;0.20;;;23.20;99.90;;;;;;4955739;28;20205;-78
2023/04/16 06:21:27;;;;;;;0.13;0.13;;;23.00;99.90;;;;;;4957053;29;20581;-74
2023/04/16 06:23:58;;;;;;;2.88;2.30;;;23.00;99.90;;;;;;4956643;29;20267;-75
2023/04/16 06:26:32;;;;;;;1.25;0.70;;;23.00;99.90;;;;;;4956443;28;20207;-76
2023/04/16 06:29:03;;;;;;;0.52;0.47;;;23.00;99.90;;;;;;4955709;29;20544;-75
2023/04/16 06:31:34;;;;;;;0.38;0.38;;;23.00;99.90;;;;;;4955359;29;20228;-75
2023/04/16 06:34:05;;;;;;;0.65;0.43;;;23.00;99.90;;;;;;4953387;29;20208;-78
2023/04/16 06:36:36;;;;;;;0.57;0.30;;;22.90;99.90;;;;;;4952789;28;20198;-76
2023/04/16 06:39:08;;;;;;;0.40;0.40;;;22.90;99.90;;;;;;4960472;28;20236;-77
2023/04/16 06:41:41;;;;;;;0.38;0.38;;;22.90;99.90;;;;;;4953704;28;20201;-75
2023/04/16 06:44:12;;;;;;;1.30;0.32;;;22.80;99.90;;;;;;4953153;29;20243;-76
2023/04/16 06:46:43;;;;;;;0.20;0.20;;;22.80;99.90;;;;;;4953700;28;20197;-77
2023/04/16 06:49:14;;;;;;;0.40;0.40;;;22.70;99.90;;;;;;4953895;28;20203;-76
2023/04/16 06:51:46;;;;;;;0.45;0.40;;;22.70;99.90;;;;;;4952789;29;20847;-77
2023/04/16 06:54:19;;;;;;;0.30;0.30;;;22.60;99.90;;;;;;4950790;29;20215;-79
2023/04/16 06:56:52;;;;;;;0.60;0.30;;;22.50;99.90;;;;;;4952775;29;20197;-75
2023/04/16 06:59:33;;;;;;;0.30;0.30;;;22.40;99.90;;;;;;4946203;28;20233;-77
2023/04/16 07:02:04;;;;;;;0.25;0.20;;;22.30;99.90;;;;;;4953348;28;20199;-76
2023/04/16 07:04:35;;;;;;;0.35;0.30;;;22.20;99.90;;;;;;4951686;28;20221;-77
2023/04/16 07:07:06;;;;;;;0.30;0.30;;;22.20;99.90;;;;;;4950597;28;20201;-79
2023/04/16 07:09:37;;;;;;;0.40;0.40;;;22.20;99.90;;;;;;4950753;28;20201;-77
2023/04/16 07:12:10;;;;;;;1.05;0.40;;;22.10;99.90;;;;;;4951004;28;20243;-77
2023/04/16 07:14:42;;;;;;;0.63;0.30;;;22.10;99.90;;;;;;4952222;29;20204;-78
2023/04/16 07:17:13;;;;;;;0.90;0.40;;;22.00;99.90;;;;;;4953663;28;20675;-77
2023/04/16 07:19:44;;;;;;;0.30;0.30;;;21.90;99.90;;;;;;4949986;28;20648;-77
2023/04/16 07:22:15;;;;;;;1.75;0.30;;;21.80;99.90;;;;;;4951515;28;20205;-78
2023/04/16 07:24:46;;;;;;;0.70;0.68;;;21.70;99.90;;;;;;4948569;28;20707;-77
2023/04/16 07:27:19;;;;;;;0.88;0.50;;;21.70;99.90;;;;;;4954016;28;20600;-76
2023/04/16 07:29:51;;;;;;;1.30;0.50;;;21.60;99.90;;;;;;4953666;29;20201;-76
2023/04/16 07:32:23;;;;;;;1.42;0.40;;;21.60;99.90;;;;;;4952310;28;20604;-76
2023/04/16 07:34:54;;;;;;;1.17;0.75;;;21.50;99.90;;;;;;4952123;28;20655;-76
2023/04/16 07:37:31;;;;;;;0.50;0.30;;;21.40;99.90;;;;;;4947876;28;20217;-78
2023/04/16 07:40:03;;;;;;;0.50;0.40;;;21.40;99.90;;;;;;4949193;29;20719;-76
2023/04/16 07:42:36;;;;;;;0.75;0.50;;;21.30;99.90;;;;;;4950247;28;20197;-75
2023/04/16 07:45:08;;;;;;;1.10;0.50;;;21.30;99.90;;;;;;4951588;29;20221;-77
2023/04/16 07:47:39;;;;;;;0.70;0.52;;;21.20;99.90;;;;;;4936031;29;20591;-77
2023/04/16 07:50:13;;;;;;;0.40;0.40;;;21.20;99.90;;;;;;4947998;29;20570;-78
2023/04/16 07:52:45;;;;;;;0.70;0.50;;;21.20;99.90;;;;;;4950368;29;20575;-78
2023/04/16 07:55:16;;;;;;;0.50;0.50;;;21.10;99.90;;;;;;4947455;28;20579;-77
2023/04/16 07:57:51;;;;;;;0.40;0.40;;;21.10;99.90;;;;;;4951200;29;20543;-80
2023/04/16 08:00:22;;;;;;;1.17;0.52;;;21.10;99.90;;;;;;4962477;23;20249;-78
2023/04/16 08:02:53;;;;;;;0.57;0.43;;;21.00;99.90;;;;;;4939542;29;20201;-78
2023/04/16 08:05:24;;;;;;;0.30;0.30;;;21.00;99.90;;;;;;4947103;29;20225;-77
2023/04/16 08:07:55;;;;;;;0.20;0.20;;;20.90;99.90;;;;;;4952491;29;20197;-77
2023/04/16 08:10:26;;;;;;;1.55;0.45;;;20.90;99.90;;;;;;4953384;29;20200;-81
2023/04/16 08:12:59;;;;;;;0.40;0.30;;;20.80;99.90;;;;;;4953524;29;20668;-81
2023/04/16 08:15:30;;;;;;;1.02;0.30;;;20.70;99.90;;;;;;4953130;29;20201;-78
2023/04/16 08:18:01;;;;;;;1.08;0.50;;;20.70;99.90;;;;;;4953613;29;20563;-80
2023/04/16 08:20:32;;;;;;;0.40;0.30;;;20.70;99.90;;;;;;4953299;29;20211;-79
2023/04/16 08:23:03;;;;;;;0.80;0.40;;;20.60;99.90;;;;;;4954076;29;20201;-78
2023/04/16 08:25:36;;;;;;;0.55;0.30;;;20.60;99.90;;;;;;4954562;29;20225;-78
2023/04/16 08:28:10;;;;;;;0.50;0.35;;;20.60;99.90;;;;;;4954166;29;20217;-79
2023/04/16 08:30:41;;;;;;;0.43;0.40;;;20.50;99.90;;;;;;4953305;29;20223;-78
2023/04/16 08:33:12;;;;;;;0.20;0.20;;;20.40;99.90;;;;;;4955013;29;20193;-78
2023/04/16 08:35:44;;;;;;;2.00;0.40;;;20.40;99.90;;;;;;4954990;29;20193;-79
2023/04/16 08:38:15;;;;;;;0.40;0.40;;;20.30;99.90;;;;;;4955181;29;20193;-78
2023/04/16 08:40:47;;;;;;;1.30;0.40;;;20.30;99.90;;;;;;4958452;29;20195;-79
2023/04/16 08:43:23;;;;;;;1.30;0.50;;;20.20;99.90;;;;;;4958995;29;20562;-78
2023/04/16 08:45:55;;;;;;;1.05;0.50;;;20.20;99.90;;;;;;4959022;29;20216;-78
2023/04/16 08:48:26;;;;;;;2.70;0.47;;;20.10;99.90;;;;;;4958811;29;20197;-78
2023/04/16 08:50:58;;;;;;;2.58;0.50;;;20.10;99.90;;;;;;4959308;29;20193;-78
2023/04/16 08:53:43;;;;;;;0.77;0.50;;;20.10;99.90;;;;;;4958928;29;20197;-78
2023/04/16 08:56:15;;;;;;;0.50;0.50;;;20.00;99.90;;;;;;4958924;29;20196;-78
2023/04/16 08:58:51;;;;;;;0.73;0.40;;;20.00;99.90;;;;;;4958865;29;20200;-78
2023/04/16 09:01:23;;;;;;;0.45;0.40;;;19.90;99.90;;;;;;4958688;28;20249;-78
2023/04/16 09:03:54;;;;;;;2.67;0.55;;;19.80;99.90;;;;;;4958988;29;20201;-78
2023/04/16 09:06:25;;;;;;;1.30;0.50;;;19.80;99.90;;;;;;4958529;29;20225;-78
2023/04/16 09:08:57;;;;;;;0.43;0.43;;;19.80;99.90;;;;;;4958616;29;20561;-78
2023/04/16 09:11:29;;;;;;;0.75;0.40;;;19.70;99.90;;;;;;4959089;29;20189;-78
2023/04/16 09:14:03;;;;;;;1.23;0.50;;;19.70;99.90;;;;;;4958512;29;20357;-78
2023/04/16 09:16:36;;;;;;;1.00;0.50;;;19.60;99.90;;;;;;4958943;29;20200;-79
2023/04/16 09:19:08;;;;;;;0.63;0.47;;;19.60;99.90;;;;;;4958553;29;20200;-78
2023/04/16 09:21:39;;;;;;;1.58;0.80;;;19.60;99.90;;;;;;4958706;29;20562;-79
2023/04/16 09:24:11;;;;;;;1.77;0.85;;;19.60;99.90;;;;;;4958230;29;20595;-78
2023/04/16 09:26:44;;;;;;;1.30;1.20;;;19.50;99.90;;;;;;4958277;29;20583;-78
2023/04/16 09:29:37;;;;;;;2.00;1.40;;;19.50;99.90;;;;;;4958589;29;20193;-77
2023/04/16 09:32:09;;;;;;;1.23;0.98;;;19.50;99.90;;;;;;4958151;29;20205;-76
2023/04/16 09:34:58;;;;;;;2.15;1.20;;;19.50;99.90;;;;;;4958488;29;20201;-78
2023/04/16 09:37:30;;;;;;;1.00;0.90;;;19.50;99.90;;;;;;4958026;29;20197;-78
2023/04/16 09:40:02;;;;;;;0.80;0.63;;;19.50;99.90;;;;;;4958234;29;20593;-78
2023/04/16 09:42:34;;;;;;;0.90;0.70;;;19.50;99.90;;;;;;4956146;29;20197;-79
2023/04/16 09:45:08;;;;;;;1.85;0.70;;;19.50;99.90;;;;;;4958057;29;20237;-79
2023/04/16 09:47:45;;;;;;;1.48;0.85;;;19.50;99.90;;;;;;4957883;29;20219;-76
2023/04/16 09:50:19;;;;;;;0.65;0.65;;;19.40;99.90;;;;;;4957352;28;20200;-76
2023/04/16 09:52:52;;;;;;;1.17;0.60;;;19.40;99.90;;;;;;4957525;29;20204;-76
2023/04/16 09:55:28;;;;;;;1.15;0.70;;;19.40;99.90;;;;;;4957829;29;20205;-76
2023/04/16 09:58:02;;;;;;;1.52;0.70;;;19.30;99.90;;;;;;4957786;29;20197;-76
2023/04/16 10:00:35;;;;;;;1.15;0.70;;;19.30;99.90;;;;;;4957724;29;20244;-77
2023/04/16 10:03:09;;;;;;;1.45;0.80;;;19.30;99.90;;;;;;4957681;29;20197;-76
2023/04/16 10:05:42;;;;;;;0.90;0.80;;;19.20;99.90;;;;;;4957599;29;20219;-76
2023/04/16 10:08:18;;;;;;;1.23;0.80;;;19.20;99.90;;;;;;4957538;29;20204;-76
2023/04/16 10:10:49;;;;;;;2.08;0.80;;;19.20;99.90;;;;;;4957526;29;20192;-76
2023/04/16 10:13:20;;;;;;;0.85;0.60;;;19.10;99.90;;;;;;4957514;29;20200;-76
2023/04/16 10:15:53;;;;;;;1.02;0.50;;;19.10;99.90;;;;;;4957302;29;20201;-76
2023/04/16 10:18:24;;;;;;;0.60;0.60;;;19.10;99.90;;;;;;4957716;29;20200;-76
2023/04/16 10:20:56;;;;;;;0.82;0.55;;;19.10;99.90;;;;;;4957360;29;20197;-76
2023/04/16 10:23:28;;;;;;;0.82;0.52;;;19.00;99.90;;;;;;4957127;29;20672;-76
2023/04/16 10:26:00;;;;;;;1.17;0.60;;;19.00;99.90;;;;;;4957543;29;20318;-76
2023/04/16 10:28:34;;;;;;;1.20;0.50;;;18.90;99.90;;;;;;4955721;29;20232;-78
2023/04/16 10:31:09;;;;;;;0.40;0.40;;;18.90;99.90;;;;;;4956911;29;20200;-78
2023/04/16 10:33:43;;;;;;;1.10;0.40;;;18.90;99.90;;;;;;4957260;29;20201;-78
2023/04/16 10:36:15;;;;;;;0.52;0.43;;;18.90;99.90;;;;;;4957082;29;20290;-78
2023/04/16 10:38:51;;;;;;;1.13;0.40;;;18.80;99.90;;;;;;4957078;29;20197;-78
2023/04/16 10:41:24;;;;;;;0.73;0.50;;;18.80;99.90;;;;;;4957005;29;20644;-78
2023/04/16 10:43:55;;;;;;;0.75;0.38;;;18.80;99.90;;;;;;4957213;29;20201;-78
2023/04/16 10:46:32;;;;;;;1.65;0.40;;;18.80;99.90;;;;;;4956636;29;20230;-78
2023/04/16 10:49:05;;;;;;;0.40;0.40;;;18.70;99.90;;;;;;4956856;29;20188;-78
2023/04/16 10:51:37;;;;;;;1.65;0.40;;;18.70;99.90;;;;;;4956731;29;20556;-78
2023/04/16 10:54:25;;;;;;;1.17;0.38;;;18.70;99.90;;;;;;4957125;29;20208;-77
2023/04/16 10:56:58;;;;;;;1.48;0.40;;;18.70;99.90;;;;;;4956772;29;20531;-78
2023/04/16 10:59:33;;;;;;;0.30;0.30;;;18.70;99.90;;;;;;4956418;29;20204;-78
2023/04/16 11:02:10;;;;;;;0.57;0.43;;;18.60;99.90;;;;;;4955895;28;20233;-78
2023/04/16 11:04:44;;;;;;;1.80;0.47;;;18.60;99.90;;;;;;4957015;29;20572;-78
2023/04/16 11:07:22;;;;;;;0.70;0.43;;;18.60;99.90;;;;;;4956412;29;20271;-78
2023/04/16 11:09:58;;;;;;;0.80;0.40;;;18.60;99.90;;;;;;4952214;29;20573;-79
2023/04/16 11:12:36;;;;;;;0.77;0.50;;;18.50;99.90;;;;;;4949221;29;20752;-79
2023/04/16 11:15:08;;;;;;;1.02;0.50;;;18.50;99.90;;;;;;4955649;29;20201;-78
2023/04/16 11:17:46;;;;;;;0.88;0.40;;;18.50;99.90;;;;;;4953952;29;20207;-78
2023/04/16 11:20:20;;;;;;;0.77;0.50;;;18.40;99.90;;;;;;4954809;29;20656;-78
2023/04/16 11:22:51;;;;;;;2.47;0.40;;;18.40;99.90;;;;;;4956129;29;20571;-78
2023/04/16 11:25:28;;;;;;;0.77;0.57;;;18.40;99.90;;;;;;4951802;29;20220;-78
2023/04/16 11:28:01;;;;;;;0.93;0.60;;;18.30;99.90;;;;;;4949247;29;20213;-78
2023/04/16 11:30:34;;;;;;;1.45;0.55;;;18.30;99.90;;;;;;4952519;29;20197;-78
2023/04/16 11:33:10;;;;;;;0.45;0.45;;;18.30;99.90;;;;;;4954241;29;20196;-78
2023/04/16 11:35:42;;;;;;;0.68;0.32;;;18.20;99.90;;;;;;4954649;29;20204;-78
2023/04/16 11:38:13;;;;;;;0.50;0.30;;;18.20;99.90;;;;;;4950012;28;20564;-79
2023/04/16 11:40:46;;;;;;;0.65;0.57;;;18.20;99.90;;;;;;4952377;29;20660;-78
2023/04/16 11:43:18;;;;;;;0.93;0.50;;;18.20;99.90;;;;;;4945119;29;20205;-79
2023/04/16 11:46:00;;;;;;;0.73;0.50;;;18.10;99.90;;;;;;4952133;28;20232;-78
2023/04/16 11:48:50;;;;;;;1.20;0.57;;;18.00;99.90;;;;;;4955357;29;20343;-78
2023/04/16 11:51:22;;;;;;;2.72;0.43;;;18.00;99.90;;;;;;4955605;29;20216;-78
2023/04/16 11:53:54;;;;;;;0.82;0.50;;;18.00;99.90;;;;;;4958487;28;20200;-79
2023/04/16 11:56:36;;;;;;;0.88;0.50;;;18.00;99.90;;;;;;4972983;28;20559;-78
2023/04/16 11:59:11;;;;;;;2.45;0.77;;;17.90;99.90;;;;;;4950875;28;20196;-78
2023/04/16 12:01:44;;;;;;;0.77;0.50;;;17.90;99.90;;;;;;4957159;28;20239;-79
2023/04/16 12:04:17;;;;;;;0.65;0.45;;;17.90;99.90;;;;;;4958636;28;20202;-78
2023/04/16 12:07:12;;;;;;;1.65;0.47;;;17.90;99.90;;;;;;4936316;29;20222;-78
2023/04/16 12:09:44;;;;;;;3.92;0.82;;;17.80;99.90;;;;;;4950915;28;20201;-78
2023/04/16 12:12:31;;;;;;;0.82;0.50;;;17.70;99.90;;;;;;4969861;28;20679;-79
2023/04/16 12:15:03;;;;;;;2.17;0.85;;;17.70;99.90;;;;;;4954662;29;20189;-78
2023/04/16 12:17:35;;;;;;;0.70;0.50;;;17.60;99.90;;;;;;4955581;29;20243;-78
2023/04/16 12:20:13;;;;;;;0.82;0.47;;;17.60;99.90;;;;;;4954960;29;20603;-78
2023/04/16 12:22:48;;;;;;;0.50;0.50;;;17.60;99.90;;;;;;4954916;29;20192;-79
2023/04/16 12:25:20;;;;;;;0.85;0.55;;;17.50;99.90;;;;;;4955904;28;20204;-78
2023/04/16 12:27:52;;;;;;;0.50;0.50;;;17.50;99.90;;;;;;4956359;28;20224;-79
2023/04/16 12:30:23;;;;;;;0.80;0.60;;;17.50;99.90;;;;;;4951683;28;20287;-78
2023/04/16 12:32:55;;;;;;;1.20;0.60;;;17.50;99.90;;;;;;4955112;29;20659;-78
2023/04/16 12:35:36;;;;;;;0.73;0.60;;;17.50;99.90;;;;;;4955281;29;20193;-79
2023/04/16 12:38:07;;;;;;;1.38;0.70;;;17.50;99.90;;;;;;4955170;29;20274;-78
2023/04/16 12:40:38;;;;;;;1.73;0.60;;;17.40;99.90;;;;;;4955007;29;20197;-78
2023/04/16 12:43:09;;;;;;;2.53;0.80;;;17.30;99.90;;;;;;4954322;29;20217;-78
2023/04/16 12:45:40;;;;;;;2.47;0.70;;;17.30;99.90;;;;;;4953996;29;20189;-79
2023/04/16 12:48:11;;;;;;;0.93;0.60;;;17.30;99.90;;;;;;4973002;28;20270;-78
2023/04/16 12:50:44;;;;;;;1.42;0.60;;;17.20;99.90;;;;;;4946889;29;20197;-79
2023/04/16 12:53:15;;;;;;;1.08;0.52;;;17.20;99.90;;;;;;4954636;29;20208;-79
2023/04/16 12:55:46;;;;;;;0.63;0.60;;;17.20;99.90;;;;;;4954754;29;20193;-78
2023/04/16 12:58:17;;;;;;;0.60;0.50;;;17.20;99.90;;;;;;4950450;29;20212;-78
2023/04/16 13:00:49;;;;;;;1.13;0.60;;;17.20;99.90;;;;;;4953676;28;20232;-78
2023/04/16 13:03:20;;;;;;;2.53;0.50;;;17.20;99.90;;;;;;4951393;29;20223;-78
2023/04/16 13:05:53;;;;;;;1.15;0.50;;;17.10;99.90;;;;;;4954576;29;20220;-78
2023/04/16 13:08:24;;;;;;;1.02;0.50;;;17.10;99.90;;;;;;4954836;29;20219;-78
2023/04/16 13:10:55;;;;;;;1.20;0.57;;;17.00;99.90;;;;;;4950847;29;20216;-78
2023/04/16 13:13:26;;;;;;;1.13;0.50;;;16.90;99.90;;;;;;4935615;29;20201;-78
2023/04/16 13:15:57;;;;;;;1.05;0.50;;;16.90;99.90;;;;;;4950068;29;20204;-78